Time;durP1;ratioP1;P1;durP2;ratioP2;P2;SDS_P1;SDS_P2;PMS_P1;PMS_P2;Temp;Humidity;BMP_temperature;BMP_pressure;BME280_temperature;BME280_humidity;BME280_pressure;Samples;Min_cycle;Max_cycle;Signal;HPM_P1;HPM_P2
2022/09/08 00:02:24;;;;;;;6.43;1.70;;;18.80;99.90;;;;;;4993439;28;20019;-92
2022/09/08 00:04:50;;;;;;;3.70;1.20;;;18.80;99.90;;;;;;4974397;28;20038;-92
2022/09/08 00:07:16;;;;;;;7.60;1.15;;;18.90;99.90;;;;;;4978651;28;20026;-93
2022/09/08 00:09:42;;;;;;;3.88;1.00;;;18.90;99.90;;;;;;4975794;28;20034;-93
2022/09/08 00:12:08;;;;;;;6.50;1.48;;;18.90;99.90;;;;;;4975644;28;20035;-92
2022/09/08 00:14:33;;;;;;;5.30;1.20;;;19.00;99.90;;;;;;4976101;28;20036;-90
2022/09/08 00:16:59;;;;;;;6.97;1.65;;;19.00;99.90;;;;;;4975535;28;20023;-95
2022/09/08 00:19:26;;;;;;;6.45;1.88;;;19.00;99.90;;;;;;4992977;28;20077;-94
2022/09/08 00:21:52;;;;;;;7.00;2.55;;;18.80;99.90;;;;;;4976705;28;20037;-93
2022/09/08 00:24:17;;;;;;;8.80;2.78;;;18.60;99.90;;;;;;4976882;28;20113;-93
2022/09/08 00:26:43;;;;;;;9.90;2.58;;;18.40;99.90;;;;;;4981094;28;20094;-94
2022/09/08 00:29:08;;;;;;;9.25;2.45;;;18.20;99.90;;;;;;4991293;28;20410;-92
2022/09/08 00:31:39;;;;;;;11.77;2.58;;;18.10;99.90;;;;;;4972844;28;20026;-93
2022/09/08 00:34:04;;;;;;;4.47;1.83;;;18.00;99.90;;;;;;4992915;28;20517;-93
2022/09/08 00:36:31;;;;;;;9.18;2.40;;;17.90;99.90;;;;;;4991607;28;20053;-93
2022/09/08 00:38:58;;;;;;;9.38;2.08;;;17.90;99.90;;;;;;4975238;28;20478;-93
2022/09/08 00:41:24;;;;;;;7.28;2.85;;;17.80;99.90;;;;;;4975768;28;20359;-93
2022/09/08 00:43:58;;;;;;;7.28;2.22;;;17.80;99.90;;;;;;4975094;28;20030;-92
2022/09/08 00:46:42;;;;;;;7.72;2.20;;;17.80;99.90;;;;;;4974967;28;20474;-92
2022/09/08 00:49:16;;;;;;;6.47;1.85;;;17.80;99.90;;;;;;4991890;28;20034;-92
2022/09/08 00:51:44;;;;;;;7.65;2.35;;;17.70;99.90;;;;;;4993659;28;20033;-92
2022/09/08 00:54:11;;;;;;;9.18;2.63;;;17.70;99.90;;;;;;4991177;28;20034;-92
2022/09/08 00:56:39;;;;;;;8.63;2.90;;;17.70;99.90;;;;;;4974413;28;20030;-93
2022/09/08 00:59:06;;;;;;;4.65;2.03;;;17.70;99.90;;;;;;4975225;28;20050;-92
2022/09/08 01:01:33;;;;;;;7.25;2.42;;;17.70;99.90;;;;;;4971086;28;20110;-91
2022/09/08 01:03:59;;;;;;;10.55;2.83;;;17.60;99.90;;;;;;4969123;28;20081;-93
2022/09/08 01:12:51;;;;;;;8.40;2.60;;;17.60;99.90;;;;;;4989617;28;20037;-94
2022/09/08 01:15:23;;;;;;;10.68;2.42;;;17.60;99.90;;;;;;4993028;28;20026;-93
2022/09/08 01:17:51;;;;;;;9.73;2.88;;;17.60;99.90;;;;;;4990082;28;20052;-93
2022/09/08 01:20:19;;;;;;;9.90;2.30;;;17.60;99.90;;;;;;4991842;28;20065;-92
2022/09/08 01:23:09;;;;;;;9.35;2.28;;;17.60;99.90;;;;;;4992230;28;20026;-92
2022/09/08 01:26:08;;;;;;;10.70;2.65;;;17.60;99.90;;;;;;4991634;28;20077;-92
2022/09/08 01:28:53;;;;;;;9.73;2.58;;;17.60;99.90;;;;;;4962568;28;20031;-92
2022/09/08 01:31:21;;;;;;;8.45;2.92;;;17.60;99.90;;;;;;4973940;28;20054;-91
2022/09/08 01:33:47;;;;;;;9.35;3.30;;;17.60;99.90;;;;;;4974176;28;20026;-92
2022/09/08 01:36:15;;;;;;;8.23;3.85;;;17.60;99.90;;;;;;4993790;28;20034;-94
2022/09/08 01:38:41;;;;;;;10.02;3.35;;;17.60;99.90;;;;;;4970823;28;20053;-93
2022/09/08 01:41:07;;;;;;;7.85;2.90;;;17.60;99.90;;;;;;4976437;28;20030;-91
2022/09/08 01:43:33;;;;;;;5.80;2.58;;;17.60;99.90;;;;;;4974610;28;20486;-93
2022/09/08 01:45:58;;;;;;;10.18;2.63;;;17.60;99.90;;;;;;4973955;28;20395;-91
2022/09/08 01:48:24;;;;;;;6.85;2.40;;;17.50;99.90;;;;;;4974859;28;20402;-91
2022/09/08 01:50:50;;;;;;;8.50;3.25;;;17.50;99.90;;;;;;4980726;28;20447;-91
2022/09/08 01:53:16;;;;;;;8.80;3.22;;;17.50;99.90;;;;;;4977341;28;20130;-91
2022/09/08 01:55:44;;;;;;;8.13;2.78;;;17.40;99.90;;;;;;4994291;28;20499;-91
2022/09/08 01:58:09;;;;;;;8.40;3.30;;;17.40;99.90;;;;;;4979106;28;20064;-91
2022/09/08 02:00:35;;;;;;;9.77;3.28;;;17.40;99.90;;;;;;4975987;28;20035;-92
2022/09/08 02:03:00;;;;;;;9.68;3.60;;;17.40;99.90;;;;;;4977134;28;20107;-91
2022/09/08 02:05:27;;;;;;;10.30;3.80;;;17.40;99.90;;;;;;4982988;28;20104;-91
2022/09/08 02:07:52;;;;;;;6.70;3.00;;;17.40;99.90;;;;;;4976670;28;20027;-91
2022/09/08 02:10:18;;;;;;;6.32;3.10;;;17.40;99.90;;;;;;4976961;28;20027;-90
2022/09/08 02:12:43;;;;;;;7.55;2.80;;;17.30;99.90;;;;;;4975280;28;20030;-90
2022/09/08 02:15:11;;;;;;;6.78;2.20;;;17.30;99.90;;;;;;4976981;28;20018;-90
2022/09/08 02:17:36;;;;;;;8.23;3.38;;;17.30;99.90;;;;;;4976095;28;20023;-91
2022/09/08 02:20:03;;;;;;;9.05;2.67;;;17.20;99.90;;;;;;4973383;28;20052;-91
2022/09/08 02:22:28;;;;;;;7.18;3.03;;;17.20;99.90;;;;;;4977096;28;20035;-89
2022/09/08 02:24:54;;;;;;;8.20;2.80;;;17.10;99.90;;;;;;4977772;28;20409;-91
2022/09/08 02:27:19;;;;;;;9.82;3.60;;;17.10;99.90;;;;;;4977587;28;20018;-90
2022/09/08 02:29:45;;;;;;;10.23;3.50;;;17.00;99.90;;;;;;4975752;28;20045;-91
2022/09/08 02:32:11;;;;;;;6.20;2.95;;;17.10;99.90;;;;;;4977746;28;20002;-91
2022/09/08 02:34:36;;;;;;;7.22;2.85;;;17.10;99.90;;;;;;4977778;28;20077;-91
2022/09/08 02:37:02;;;;;;;8.00;2.88;;;17.10;99.90;;;;;;4977784;28;20026;-90
2022/09/08 02:39:28;;;;;;;8.10;3.67;;;17.10;99.90;;;;;;4975820;28;20399;-94
2022/09/08 02:41:54;;;;;;;6.80;3.03;;;17.10;99.90;;;;;;4976693;28;20052;-92
2022/09/08 02:44:19;;;;;;;7.15;3.33;;;17.10;99.90;;;;;;4980874;28;20037;-91
2022/09/08 02:46:45;;;;;;;8.65;3.47;;;17.10;99.90;;;;;;4974822;28;20018;-90
2022/09/08 02:49:11;;;;;;;8.07;3.78;;;17.10;99.90;;;;;;4977491;28;20030;-91
2022/09/08 02:51:37;;;;;;;8.88;3.42;;;17.10;99.90;;;;;;4993846;28;20019;-90
2022/09/08 02:54:03;;;;;;;10.15;4.00;;;17.10;99.90;;;;;;4990057;28;20057;-89
2022/09/08 02:56:29;;;;;;;8.80;3.97;;;17.10;99.90;;;;;;4977069;28;20419;-90
2022/09/08 02:58:55;;;;;;;6.18;3.10;;;17.10;99.90;;;;;;4976361;28;20116;-90
2022/09/08 03:01:21;;;;;;;10.68;3.42;;;17.10;99.90;;;;;;4989848;28;20035;-90
2022/09/08 03:03:47;;;;;;;9.27;3.60;;;17.00;99.90;;;;;;4975651;28;20490;-90
2022/09/08 03:06:14;;;;;;;7.45;3.35;;;17.00;99.90;;;;;;4991058;28;20541;-90
2022/09/08 03:08:39;;;;;;;10.40;3.60;;;17.00;99.90;;;;;;4975895;28;20441;-90
2022/09/08 03:11:05;;;;;;;8.88;3.85;;;17.00;99.90;;;;;;4982061;28;20027;-90
2022/09/08 03:13:31;;;;;;;11.15;3.72;;;17.10;99.90;;;;;;4989668;28;20105;-91
2022/09/08 03:15:57;;;;;;;10.30;3.60;;;17.10;99.90;;;;;;4974543;28;20029;-90
2022/09/08 03:18:23;;;;;;;9.50;3.90;;;17.00;99.90;;;;;;4975241;28;20050;-90
2022/09/08 03:21:02;;;;;;;7.72;3.50;;;17.00;99.90;;;;;;4974717;28;20756;-90
2022/09/08 03:23:28;;;;;;;12.38;4.13;;;17.00;99.90;;;;;;4994276;28;20049;-90
2022/09/08 03:25:54;;;;;;;7.97;3.97;;;17.00;99.90;;;;;;4976060;28;20061;-88
2022/09/08 03:28:22;;;;;;;9.43;4.22;;;17.00;99.90;;;;;;4972871;28;20051;-89
2022/09/08 03:30:49;;;;;;;6.38;3.70;;;17.00;99.90;;;;;;4975598;28;20034;-89
2022/09/08 03:33:15;;;;;;;11.30;3.97;;;17.00;99.90;;;;;;4993310;28;20109;-90
2022/09/08 03:35:41;;;;;;;9.70;4.40;;;17.00;99.90;;;;;;4977464;28;20584;-90
2022/09/08 03:38:07;;;;;;;12.10;4.50;;;17.10;99.90;;;;;;4976293;28;20057;-90
2022/09/08 03:40:34;;;;;;;15.30;5.68;;;17.10;99.90;;;;;;4974857;28;20034;-90
2022/09/08 03:43:00;;;;;;;14.20;6.20;;;17.10;99.90;;;;;;4975543;28;20026;-89
2022/09/08 03:45:26;;;;;;;12.45;5.97;;;17.10;99.90;;;;;;4972679;28;22275;-91
2022/09/08 03:47:51;;;;;;;18.02;6.70;;;17.10;99.90;;;;;;4986559;28;20022;-94
2022/09/08 03:50:18;;;;;;;16.60;6.72;;;17.10;99.90;;;;;;4977716;28;20022;-93
2022/09/08 03:52:44;;;;;;;15.82;5.97;;;17.10;99.90;;;;;;4975766;28;20041;-95
2022/09/08 03:55:10;;;;;;;12.57;6.28;;;17.10;99.90;;;;;;4975428;28;20026;-93
2022/09/08 03:57:37;;;;;;;15.13;4.97;;;17.10;99.90;;;;;;4975466;28;20121;-92
2022/09/08 04:00:06;;;;;;;11.55;4.65;;;17.00;99.90;;;;;;4978312;28;20141;-91
2022/09/08 04:02:32;;;;;;;8.35;3.63;;;16.90;99.90;;;;;;4977634;28;20478;-92
2022/09/08 04:04:58;;;;;;;5.40;2.08;;;16.90;99.90;;;;;;4973930;28;20126;-91
2022/09/08 04:07:27;;;;;;;8.95;2.70;;;16.80;99.90;;;;;;4972441;28;20169;-91
2022/09/08 04:09:53;;;;;;;7.57;3.28;;;16.80;99.90;;;;;;4973671;28;20117;-90
2022/09/08 04:12:19;;;;;;;7.25;3.28;;;16.80;99.90;;;;;;4990681;28;20390;-89
2022/09/08 04:14:48;;;;;;;9.30;3.30;;;16.70;99.90;;;;;;4992035;28;20033;-91
2022/09/08 04:17:14;;;;;;;6.90;2.33;;;16.70;99.90;;;;;;4975487;28;20033;-91
2022/09/08 04:19:40;;;;;;;6.95;2.35;;;16.60;99.90;;;;;;4990594;28;20046;-92
2022/09/08 04:22:06;;;;;;;5.72;2.03;;;16.70;99.90;;;;;;4990543;28;20026;-90
2022/09/08 04:24:32;;;;;;;12.25;3.17;;;16.70;99.90;;;;;;4994428;28;20389;-90
2022/09/08 04:27:18;;;;;;;7.65;2.78;;;16.60;99.90;;;;;;4974727;28;20381;-90
2022/09/08 04:40:21;;;;;;;11.02;3.45;;;16.60;99.90;;;;;;4991174;28;20048;-92
2022/09/08 06:06:10;;;;;;;9.30;3.70;;;16.70;99.90;;;;;;2866360;28;22505;-90
2022/09/08 06:08:38;;;;;;;10.90;3.92;;;16.70;99.90;;;;;;5000983;28;20042;-89
2022/09/08 06:11:04;;;;;;;9.95;4.28;;;16.60;99.90;;;;;;4968432;28;20030;-91
2022/09/08 06:13:31;;;;;;;9.00;4.40;;;16.60;99.90;;;;;;4982404;28;20397;-88
2022/09/08 06:16:05;;;;;;;11.40;4.15;;;16.60;99.90;;;;;;4999779;28;20072;-92
2022/09/08 06:18:36;;;;;;;8.20;4.00;;;16.60;99.90;;;;;;4996165;28;20034;-91
2022/09/08 06:21:22;;;;;;;8.35;3.90;;;16.60;99.90;;;;;;4991431;28;20041;-91
2022/09/08 06:23:49;;;;;;;11.95;4.50;;;16.70;99.90;;;;;;4990528;28;20047;-91
2022/09/08 06:26:15;;;;;;;10.55;4.25;;;16.60;99.90;;;;;;4982767;28;20077;-91
2022/09/08 06:28:50;;;;;;;8.18;4.50;;;16.60;99.90;;;;;;4979550;28;20038;-91
2022/09/08 06:31:21;;;;;;;11.55;4.32;;;16.70;99.90;;;;;;4989450;28;20544;-92
2022/09/08 06:33:48;;;;;;;11.57;5.22;;;16.60;99.90;;;;;;4998577;28;20545;-92
2022/09/08 06:36:25;;;;;;;9.70;4.57;;;16.60;99.90;;;;;;4978479;28;20035;-92
2022/09/08 06:38:57;;;;;;;13.18;4.65;;;16.70;99.90;;;;;;4985497;28;20038;-91
2022/09/08 06:41:49;;;;;;;11.63;5.28;;;16.70;99.90;;;;;;4981337;28;20030;-91
2022/09/08 06:44:20;;;;;;;10.20;4.90;;;16.70;99.90;;;;;;4996569;28;20038;-91
2022/09/08 06:46:46;;;;;;;11.93;5.83;;;16.60;99.90;;;;;;4996925;28;20057;-92
2022/09/08 06:49:13;;;;;;;12.35;5.55;;;16.70;99.90;;;;;;4979478;28;20034;-92
2022/09/08 06:51:38;;;;;;;12.60;6.25;;;16.60;99.90;;;;;;4966589;28;20035;-89
2022/09/08 06:54:10;;;;;;;10.85;5.85;;;16.70;99.90;;;;;;4980354;28;20026;-92
2022/09/08 06:57:04;;;;;;;10.83;6.03;;;16.60;99.90;;;;;;4980092;28;20404;-91
2022/09/08 06:59:50;;;;;;;8.63;6.50;;;16.60;99.90;;;;;;4978501;28;20668;-91
2022/09/08 07:02:40;;;;;;;10.15;6.35;;;16.60;99.90;;;;;;4987562;28;20512;-91
2022/09/08 07:05:38;;;;;;;10.20;6.38;;;16.70;99.90;;;;;;4991337;28;20023;-92
2022/09/08 07:08:20;;;;;;;10.77;7.07;;;16.70;99.90;;;;;;4988997;28;20061;-91
2022/09/08 07:11:01;;;;;;;11.23;7.55;;;16.70;99.90;;;;;;4993894;28;20030;-90
2022/09/08 07:13:41;;;;;;;13.93;7.15;;;16.70;99.90;;;;;;4978488;28;20026;-90
2022/09/08 07:16:32;;;;;;;9.40;7.35;;;16.80;99.90;;;;;;4979391;28;20077;-90
2022/09/08 07:19:03;;;;;;;11.25;6.10;;;16.90;99.90;;;;;;4979297;28;20363;-92
2022/09/08 07:21:28;;;;;;;12.38;6.30;;;16.90;99.90;;;;;;4982547;28;20072;-91
2022/09/08 07:24:00;;;;;;;8.35;6.78;;;16.90;99.90;;;;;;4971508;28;20035;-90
2022/09/08 07:26:55;;;;;;;11.93;5.43;;;17.00;99.90;;;;;;4979579;28;20442;-90
2022/09/08 07:29:48;;;;;;;9.70;5.93;;;17.00;99.90;;;;;;4978508;28;20446;-90
2022/09/08 07:32:30;;;;;;;10.60;6.30;;;17.00;99.90;;;;;;4971202;28;20034;-91
2022/09/08 07:35:04;;;;;;;10.83;6.57;;;17.10;99.90;;;;;;4973466;28;20022;-90
2022/09/08 07:37:44;;;;;;;14.48;7.63;;;17.10;99.90;;;;;;4967479;28;20397;-90
2022/09/08 07:40:43;;;;;;;10.90;6.93;;;17.20;99.90;;;;;;4975481;28;20039;-89
2022/09/08 07:43:11;;;;;;;9.77;6.47;;;17.20;99.90;;;;;;4975034;28;20045;-90
2022/09/08 07:45:58;;;;;;;10.30;6.57;;;17.20;99.90;;;;;;4974193;28;20500;-89
2022/09/08 07:48:28;;;;;;;9.00;6.70;;;17.30;99.90;;;;;;4975671;28;20033;-88
2022/09/08 07:51:12;;;;;;;9.07;6.35;;;17.30;99.90;;;;;;4995021;28;20019;-89
2022/09/08 07:53:59;;;;;;;11.23;5.80;;;17.30;99.90;;;;;;4975205;28;20031;-88
2022/09/08 07:56:39;;;;;;;11.18;6.57;;;17.40;99.90;;;;;;4984877;28;20030;-89
2022/09/08 07:59:19;;;;;;;8.95;5.97;;;17.50;99.90;;;;;;4977365;28;20429;-89
2022/09/08 08:02:15;;;;;;;12.15;7.03;;;17.60;99.90;;;;;;4981548;28;20031;-88
2022/09/08 08:05:05;;;;;;;10.70;6.90;;;17.70;99.90;;;;;;4985761;28;20034;-89
2022/09/08 08:07:45;;;;;;;8.70;6.43;;;17.80;99.90;;;;;;4977011;28;20046;-89
2022/09/08 08:10:26;;;;;;;10.55;7.03;;;17.80;99.90;;;;;;4976874;28;20026;-89
2022/09/08 08:13:05;;;;;;;11.73;6.68;;;17.90;99.90;;;;;;4974550;28;20034;-89
2022/09/08 08:16:12;;;;;;;8.88;6.65;;;18.00;99.90;;;;;;4960065;28;20031;-89
2022/09/08 08:19:02;;;;;;;10.38;6.38;;;18.00;99.90;;;;;;4976247;28;20521;-90
2022/09/08 08:21:46;;;;;;;13.93;7.25;;;18.00;99.90;;;;;;4978248;28;20077;-89
2022/09/08 08:24:26;;;;;;;7.63;6.63;;;18.10;99.90;;;;;;4977614;28;20026;-91
2022/09/08 08:26:54;;;;;;;13.85;7.68;;;18.20;99.90;;;;;;4977656;28;20474;-90
2022/09/08 08:29:19;;;;;;;11.23;7.68;;;18.20;99.90;;;;;;4994598;28;20018;-89
2022/09/08 08:31:57;;;;;;;13.60;7.40;;;18.30;99.90;;;;;;4995149;28;20019;-90
2022/09/08 08:34:29;;;;;;;10.40;7.63;;;18.30;99.90;;;;;;4961509;28;20030;-89
2022/09/08 08:37:00;;;;;;;11.48;7.72;;;18.40;99.90;;;;;;4963928;28;20023;-90
2022/09/08 08:39:26;;;;;;;13.50;7.95;;;18.50;99.90;;;;;;4976176;28;20054;-91
2022/09/08 08:41:58;;;;;;;13.85;9.05;;;18.50;99.90;;;;;;4994541;28;20050;-92
2022/09/08 08:44:45;;;;;;;12.18;8.45;;;18.80;99.90;;;;;;4969816;28;20026;-91
2022/09/08 08:47:39;;;;;;;12.15;8.90;;;19.10;99.90;;;;;;4983764;28;20156;-92
2022/09/08 08:50:20;;;;;;;11.13;7.85;;;19.40;99.90;;;;;;4993668;28;20030;-92
2022/09/08 08:53:02;;;;;;;7.47;6.57;;;19.50;99.90;;;;;;4974961;28;20574;-93
2022/09/08 08:55:49;;;;;;;9.68;5.10;;;19.50;99.90;;;;;;4972151;28;20035;-91
2022/09/08 08:58:48;;;;;;;7.90;4.30;;;19.60;99.90;;;;;;4964874;28;20237;-91
2022/09/08 09:01:21;;;;;;;6.47;3.92;;;19.70;99.90;;;;;;4964537;28;20026;-91
2022/09/08 09:04:24;;;;;;;7.47;4.25;;;19.80;99.90;;;;;;4973612;28;20023;-92
2022/09/08 09:06:53;;;;;;;7.88;4.03;;;19.80;99.90;;;;;;4972737;28;20051;-91
2022/09/08 09:09:43;;;;;;;5.88;3.63;;;19.80;99.90;;;;;;4967019;28;20034;-92
2022/09/08 09:12:14;;;;;;;8.90;4.00;;;19.90;99.90;;;;;;4995073;28;20109;-92
2022/09/08 09:15:04;;;;;;;6.82;4.25;;;20.10;99.90;;;;;;4994346;28;20034;-91
2022/09/08 09:18:07;;;;;;;6.88;4.22;;;20.30;99.90;;;;;;4968456;28;20023;-93
2022/09/08 09:20:59;;;;;;;6.90;3.80;;;20.30;99.90;;;;;;4980759;28;20170;-93
2022/09/08 09:23:51;;;;;;;7.00;4.05;;;20.10;99.90;;;;;;4974567;28;20124;-92
2022/09/08 09:26:21;;;;;;;4.40;3.30;;;19.90;99.90;;;;;;4982174;28;20034;-93
2022/09/08 09:29:26;;;;;;;7.72;3.83;;;19.80;99.90;;;;;;4980025;28;20052;-92
2022/09/08 09:32:25;;;;;;;5.20;3.28;;;19.70;99.90;;;;;;4901228;29;20032;-91
2022/09/08 09:35:10;;;;;;;7.32;4.45;;;19.70;99.90;;;;;;4918484;29;20035;-93
2022/09/08 09:38:16;;;;;;;8.95;4.22;;;19.70;99.90;;;;;;4963382;28;20513;-92
2022/09/08 09:41:08;;;;;;;3.97;3.42;;;19.80;99.90;;;;;;4974528;28;20030;-93
2022/09/08 09:43:45;;;;;;;5.75;4.45;;;19.90;99.90;;;;;;4970563;28;20049;-92
2022/09/08 09:46:13;;;;;;;6.60;3.60;;;20.00;99.90;;;;;;4992528;28;20133;-92
2022/09/08 09:49:02;;;;;;;3.92;2.47;;;20.00;99.90;;;;;;4990732;28;20030;-93
2022/09/08 09:51:56;;;;;;;6.22;1.92;;;20.00;99.90;;;;;;4995471;28;20026;-92
2022/09/08 09:54:43;;;;;;;3.55;1.40;;;20.10;99.90;;;;;;4990005;28;20062;-93
2022/09/08 09:57:29;;;;;;;4.50;1.90;;;20.30;99.90;;;;;;4969890;28;20050;-92
2022/09/08 10:00:20;;;;;;;3.75;1.60;;;20.40;99.90;;;;;;4986099;28;20065;-93
2022/09/08 10:03:08;;;;;;;3.63;1.10;;;20.50;99.90;;;;;;4979326;28;20081;-93
2022/09/08 10:05:46;;;;;;;4.00;1.00;;;20.70;99.90;;;;;;4977253;28;20505;-93
2022/09/08 10:08:27;;;;;;;3.15;0.88;;;20.90;99.90;;;;;;4973009;28;20409;-93
2022/09/08 10:11:23;;;;;;;3.90;1.02;;;20.90;99.90;;;;;;4980432;28;20054;-90
2022/09/08 10:14:37;;;;;;;5.30;1.42;;;21.00;99.90;;;;;;4985392;28;20031;-92
2022/09/08 10:17:11;;;;;;;3.47;1.10;;;21.10;99.90;;;;;;4961743;28;20025;-90
2022/09/08 10:20:04;;;;;;;3.50;1.27;;;21.40;99.90;;;;;;4980189;28;20038;-91
2022/09/08 10:22:59;;;;;;;2.55;1.20;;;21.40;99.90;;;;;;4989975;28;20050;-92
2022/09/08 10:25:36;;;;;;;4.80;1.77;;;21.30;99.90;;;;;;4979711;28;20486;-93
2022/09/08 10:28:28;;;;;;;6.85;1.88;;;21.10;99.90;;;;;;4962455;28;20034;-93
2022/09/08 10:31:35;;;;;;;4.10;1.13;;;21.00;99.90;;;;;;4979048;28;20035;-91
2022/09/08 10:34:19;;;;;;;4.45;0.82;;;21.10;99.90;;;;;;4961871;28;20035;-92
2022/09/08 10:37:04;;;;;;;4.25;0.70;;;21.20;99.90;;;;;;4975995;28;20470;-91
2022/09/08 10:39:40;;;;;;;3.35;0.90;;;21.30;99.90;;;;;;4980975;28;20409;-92
2022/09/08 10:42:24;;;;;;;2.33;0.60;;;21.40;99.90;;;;;;4963568;28;20035;-92
2022/09/08 10:44:57;;;;;;;3.35;0.90;;;21.30;99.90;;;;;;4961442;28;20041;-93
2022/09/08 10:47:47;;;;;;;3.10;0.70;;;21.30;99.90;;;;;;4964317;28;20117;-93
2022/09/08 10:50:22;;;;;;;3.03;0.50;;;21.40;99.90;;;;;;4997603;28;20086;-93
2022/09/08 10:53:09;;;;;;;4.30;0.60;;;21.60;99.90;;;;;;4973523;28;20030;-92
2022/09/08 10:56:01;;;;;;;5.68;0.93;;;21.70;99.90;;;;;;4983264;28;20548;-92
2022/09/08 10:59:03;;;;;;;6.47;0.55;;;21.60;99.90;;;;;;4975528;28;20054;-93
2022/09/08 11:02:00;;;;;;;3.30;0.60;;;21.40;99.90;;;;;;4968050;28;20494;-91
2022/09/08 11:04:57;;;;;;;6.85;0.50;;;21.10;99.90;;;;;;4997323;28;20482;-93
2022/09/08 11:07:49;;;;;;;4.10;0.57;;;20.80;99.90;;;;;;4989747;28;20050;-92
2022/09/08 11:10:28;;;;;;;3.00;0.50;;;20.60;99.90;;;;;;4966621;28;20027;-90
2022/09/08 11:13:25;;;;;;;4.60;0.55;;;20.50;99.90;;;;;;4973670;28;20031;-91
2022/09/08 11:16:21;;;;;;;3.60;0.60;;;20.40;99.90;;;;;;4977528;28;20074;-91
2022/09/08 11:19:11;;;;;;;3.58;0.52;;;20.30;99.90;;;;;;4988842;28;20038;-91
2022/09/08 11:21:51;;;;;;;3.40;0.50;;;20.20;99.90;;;;;;4976804;28;20379;-90
2022/09/08 11:24:39;;;;;;;4.20;0.70;;;20.50;99.90;;;;;;4978890;28;20132;-92
2022/09/08 11:27:47;;;;;;;2.85;0.90;;;20.60;99.90;;;;;;4972859;28;20018;-89
2022/09/08 11:30:17;;;;;;;6.72;1.10;;;20.80;99.90;;;;;;4981023;28;20027;-90
2022/09/08 11:33:21;;;;;;;4.65;0.98;;;21.00;99.90;;;;;;4994876;28;20026;-91
2022/09/08 11:35:58;;;;;;;3.28;0.50;;;21.30;99.90;;;;;;4976920;28;20058;-91
2022/09/08 11:38:26;;;;;;;2.65;0.47;;;21.60;99.90;;;;;;4984341;28;20387;-90
2022/09/08 11:41:16;;;;;;;6.45;0.40;;;21.80;99.90;;;;;;4971542;28;20520;-90
2022/09/08 11:43:47;;;;;;;2.47;0.30;;;22.00;99.90;;;;;;4964586;28;20026;-89
2022/09/08 11:46:20;;;;;;;3.35;0.40;;;22.10;99.90;;;;;;4995926;28;20061;-89
2022/09/08 11:48:56;;;;;;;3.35;0.38;;;22.10;99.90;;;;;;4975114;28;20070;-90
2022/09/08 11:51:39;;;;;;;5.28;0.82;;;22.20;99.60;;;;;;4995444;28;20429;-89
2022/09/08 11:54:43;;;;;;;5.30;0.88;;;22.20;99.40;;;;;;4962039;28;20086;-89
2022/09/08 11:57:47;;;;;;;3.15;0.40;;;22.30;99.30;;;;;;4989958;28;20482;-88
2022/09/08 12:00:43;;;;;;;4.15;0.50;;;22.40;98.90;;;;;;4987418;28;20048;-90
2022/09/08 12:03:35;;;;;;;4.13;0.43;;;22.40;98.00;;;;;;4978656;28;20040;-90
2022/09/08 12:06:14;;;;;;;3.35;0.32;;;22.50;98.40;;;;;;4996617;28;20031;-89
2022/09/08 12:08:54;;;;;;;3.42;0.28;;;22.60;97.30;;;;;;4994878;28;20085;-88
2022/09/08 12:11:19;;;;;;;2.00;0.30;;;22.40;96.70;;;;;;4988354;28;20026;-89
2022/09/08 12:14:06;;;;;;;3.17;0.45;;;22.30;96.60;;;;;;4974879;28;20117;-89
2022/09/08 12:16:52;;;;;;;3.33;0.30;;;22.30;96.40;;;;;;4996026;28;20033;-89
2022/09/08 12:19:33;;;;;;;5.78;0.40;;;22.30;96.70;;;;;;4973274;28;20037;-89
2022/09/08 12:22:06;;;;;;;5.00;0.40;;;22.40;96.50;;;;;;4995110;28;20023;-91
2022/09/08 12:25:03;;;;;;;4.38;0.40;;;22.40;95.90;;;;;;4986992;28;20121;-89
2022/09/08 12:27:59;;;;;;;4.00;0.93;;;22.40;95.70;;;;;;4968969;28;20062;-89
2022/09/08 12:31:00;;;;;;;2.45;0.30;;;22.40;95.70;;;;;;4978161;28;20048;-90
2022/09/08 12:34:03;;;;;;;4.95;0.60;;;22.40;95.90;;;;;;4972418;28;20045;-89
2022/09/08 12:36:50;;;;;;;3.63;0.60;;;22.50;96.10;;;;;;4984417;28;20080;-91
2022/09/08 12:39:49;;;;;;;4.80;0.52;;;22.40;95.70;;;;;;4992989;28;20035;-89
2022/09/08 12:42:33;;;;;;;3.70;0.35;;;22.30;95.80;;;;;;4987915;28;20054;-88
2022/09/08 12:45:23;;;;;;;4.47;0.40;;;22.30;96.10;;;;;;4978640;28;20065;-90
2022/09/08 12:48:10;;;;;;;2.03;0.30;;;22.30;96.00;;;;;;4993347;28;20030;-90
2022/09/08 12:50:44;;;;;;;3.70;0.50;;;22.40;95.90;;;;;;4979748;28;20438;-88
2022/09/08 12:53:42;;;;;;;2.35;0.40;;;22.40;95.50;;;;;;4978549;28;20031;-91
2022/09/08 12:56:31;;;;;;;5.85;0.60;;;22.50;95.40;;;;;;4962975;28;20105;-89
2022/09/08 12:59:11;;;;;;;3.63;0.45;;;22.50;95.50;;;;;;4975792;28;20093;-92
2022/09/08 13:02:06;;;;;;;3.45;0.40;;;22.40;95.50;;;;;;4986974;28;20474;-92
2022/09/08 13:05:03;;;;;;;3.55;0.40;;;22.30;95.90;;;;;;4967057;28;20061;-91
2022/09/08 13:08:02;;;;;;;4.55;0.40;;;22.50;96.10;;;;;;4981990;28;20055;-92
2022/09/08 13:10:40;;;;;;;3.72;0.40;;;22.70;95.90;;;;;;4991565;28;20018;-92
2022/09/08 13:13:40;;;;;;;3.92;0.43;;;22.90;95.70;;;;;;4985452;28;20496;-92
2022/09/08 13:16:33;;;;;;;2.90;0.40;;;23.10;95.40;;;;;;4966840;28;20541;-92
2022/09/08 13:19:25;;;;;;;3.42;0.50;;;23.30;95.10;;;;;;4985412;28;20030;-93
2022/09/08 13:22:23;;;;;;;3.00;0.60;;;23.40;94.70;;;;;;4994819;28;20383;-93
2022/09/08 13:25:07;;;;;;;5.20;0.40;;;23.30;94.40;;;;;;4976926;28;20039;-92
2022/09/08 13:27:59;;;;;;;2.13;0.40;;;23.20;94.10;;;;;;4991240;28;20055;-93
2022/09/08 13:30:56;;;;;;;3.70;0.45;;;23.10;94.20;;;;;;4931296;28;20034;-93
2022/09/08 13:33:58;;;;;;;2.75;0.30;;;22.90;94.30;;;;;;4967973;28;20041;-93
2022/09/08 13:36:48;;;;;;;2.17;0.40;;;22.80;94.30;;;;;;4978034;28;20073;-92
2022/09/08 13:39:18;;;;;;;3.50;0.40;;;22.60;94.30;;;;;;4988979;28;20031;-92
2022/09/08 13:42:06;;;;;;;2.40;0.38;;;22.50;94.50;;;;;;4964865;28;20031;-92
2022/09/08 13:45:16;;;;;;;2.97;0.50;;;22.40;94.70;;;;;;4985352;28;20053;-91
2022/09/08 13:47:47;;;;;;;1.63;0.40;;;22.30;94.40;;;;;;4979787;28;20053;-92
2022/09/08 13:50:29;;;;;;;2.05;0.50;;;22.10;94.50;;;;;;4998756;28;20018;-90
2022/09/08 13:53:26;;;;;;;4.88;0.50;;;22.10;94.50;;;;;;4998646;28;20031;-91
2022/09/08 13:56:18;;;;;;;5.30;0.50;;;22.10;94.50;;;;;;4986060;28;20089;-89
2022/09/08 13:58:46;;;;;;;1.98;0.40;;;22.20;94.30;;;;;;4978848;28;20542;-92
2022/09/08 14:01:30;;;;;;;4.00;0.40;;;22.50;94.30;;;;;;4996360;28;20045;-92
2022/09/08 14:04:14;;;;;;;2.28;0.38;;;22.80;94.00;;;;;;5018185;28;20072;-92
2022/09/08 14:07:02;;;;;;;2.95;0.40;;;23.30;93.60;;;;;;4961881;28;20046;-90
2022/09/08 14:09:38;;;;;;;2.15;0.40;;;23.60;93.10;;;;;;4978735;28;20030;-91
2022/09/08 14:12:17;;;;;;;2.67;0.30;;;23.90;92.30;;;;;;4976095;28;20035;-92
2022/09/08 14:15:10;;;;;;;2.53;0.28;;;23.90;91.70;;;;;;4978811;28;20038;-89
2022/09/08 14:17:39;;;;;;;3.50;0.30;;;23.80;91.20;;;;;;4980944;28;20494;-93
2022/09/08 14:20:22;;;;;;;1.63;0.20;;;23.70;90.60;;;;;;4980953;28;20121;-93
2022/09/08 14:23:15;;;;;;;3.17;0.30;;;23.50;90.50;;;;;;4980470;28;20082;-92
2022/09/08 14:25:41;;;;;;;1.83;0.28;;;23.20;90.20;;;;;;4983433;28;20058;-92
2022/09/08 14:28:19;;;;;;;2.63;0.20;;;23.00;90.40;;;;;;4978496;28;20035;-91
2022/09/08 14:31:19;;;;;;;3.47;0.20;;;23.10;90.90;;;;;;4970731;28;20138;-93
2022/09/08 14:33:54;;;;;;;1.80;0.25;;;23.20;90.80;;;;;;4982274;28;20042;-93
2022/09/08 14:36:43;;;;;;;3.35;0.63;;;23.30;90.60;;;;;;4981676;28;20031;-94
2022/09/08 14:39:24;;;;;;;1.45;0.20;;;23.30;90.30;;;;;;4981097;28;20038;-94
2022/09/08 14:42:32;;;;;;;1.75;0.22;;;23.30;90.10;;;;;;4976463;28;20115;-94
2022/09/08 14:45:24;;;;;;;2.40;0.25;;;23.20;89.70;;;;;;4971845;28;20027;-95
2022/09/08 14:47:52;;;;;;;5.30;0.65;;;23.10;89.50;;;;;;4962836;28;20031;-96
2022/09/08 14:50:28;;;;;;;3.03;0.20;;;23.10;90.00;;;;;;4977047;28;20121;-92
2022/09/08 14:53:19;;;;;;;2.75;0.30;;;23.20;90.00;;;;;;4974523;28;20026;-92
2022/09/08 14:55:55;;;;;;;3.97;0.30;;;23.30;89.40;;;;;;4978773;28;20486;-91
2022/09/08 14:58:58;;;;;;;2.35;0.20;;;23.20;89.00;;;;;;4976846;28;20026;-95
2022/09/08 15:01:36;;;;;;;4.28;0.30;;;23.20;89.20;;;;;;4970962;28;20038;-95
2022/09/08 15:04:24;;;;;;;3.42;0.65;;;23.20;89.20;;;;;;4990003;28;20057;-95
2022/09/08 15:06:53;;;;;;;4.68;0.40;;;23.30;89.50;;;;;;4990389;28;20035;-95
2022/09/08 15:09:22;;;;;;;3.70;0.50;;;23.30;88.20;;;;;;4976653;28;20533;-94
2022/09/08 15:11:49;;;;;;;4.95;0.38;;;23.40;88.70;;;;;;4979675;28;20027;-94
2022/09/08 15:14:29;;;;;;;2.03;0.25;;;23.50;88.20;;;;;;4987943;28;20438;-93
2022/09/08 15:17:06;;;;;;;5.60;0.30;;;23.50;87.80;;;;;;4977062;28;20031;-92
2022/09/08 15:19:47;;;;;;;2.63;0.32;;;23.60;88.10;;;;;;4993889;28;20037;-89
2022/09/08 15:22:34;;;;;;;2.92;0.38;;;23.70;88.00;;;;;;4972566;28;20071;-92
2022/09/08 15:25:33;;;;;;;3.80;0.50;;;23.80;87.30;;;;;;4985351;28;20541;-93